sensor_id;sensor_type;location;lat;lon;timestamp;P1;durP1;ratioP1;P2;durP2;ratioP2
57531;SDS011;43359;51.296;16.904;2022-09-09T00:12:25;111.30;;;83.55;;
57531;SDS011;43359;51.296;16.904;2022-09-09T00:14:56;317.50;;;94.63;;
57531;SDS011;43359;51.296;16.904;2022-09-09T00:17:32;118.38;;;92.85;;
57531;SDS011;43359;51.296;16.904;2022-09-09T00:22:35;475.23;;;101.13;;
57531;SDS011;43359;51.296;16.904;2022-09-09T00:25:28;227.77;;;86.13;;
57531;SDS011;43359;51.296;16.904;2022-09-09T00:27:50;109.38;;;78.55;;
57531;SDS011;43359;51.296;16.904;2022-09-09T00:32:44;180.68;;;89.90;;
57531;SDS011;43359;51.296;16.904;2022-09-09T00:35:15;101.45;;;90.28;;
57531;SDS011;43359;51.296;16.904;2022-09-09T00:37:43;143.45;;;88.13;;
57531;SDS011;43359;51.296;16.904;2022-09-09T00:42:49;99.43;;;90.85;;
57531;SDS011;43359;51.296;16.904;2022-09-09T00:45:36;98.13;;;90.90;;
57531;SDS011;43359;51.296;16.904;2022-09-09T00:48:07;104.53;;;97.75;;
57531;SDS011;43359;51.296;16.904;2022-09-09T00:50:50;109.05;;;98.43;;
57531;SDS011;43359;51.296;16.904;2022-09-09T00:53:39;190.13;;;90.00;;
57531;SDS011;43359;51.296;16.904;2022-09-09T00:56:14;500.65;;;118.93;;
57531;SDS011;43359;51.296;16.904;2022-09-09T00:58:47;439.40;;;110.45;;
57531;SDS011;43359;51.296;16.904;2022-09-09T01:01:15;161.50;;;99.68;;
57531;SDS011;43359;51.296;16.904;2022-09-09T01:14:47;471.75;;;113.85;;
57531;SDS011;43359;51.296;16.904;2022-09-09T01:16:46;378.77;;;113.43;;
57531;SDS011;43359;51.296;16.904;2022-09-09T01:19:15;122.68;;;101.22;;
57531;SDS011;43359;51.296;16.904;2022-09-09T01:21:50;117.65;;;107.53;;
57531;SDS011;43359;51.296;16.904;2022-09-09T01:24:27;104.15;;;93.88;;
57531;SDS011;43359;51.296;16.904;2022-09-09T01:26:58;103.25;;;93.07;;
57531;SDS011;43359;51.296;16.904;2022-09-09T01:29:25;113.30;;;97.30;;
57531;SDS011;43359;51.296;16.904;2022-09-09T01:31:56;94.47;;;85.82;;
57531;SDS011;43359;51.296;16.904;2022-09-09T01:34:23;100.78;;;90.20;;
57531;SDS011;43359;51.296;16.904;2022-09-09T01:36:57;106.93;;;98.03;;
57531;SDS011;43359;51.296;16.904;2022-09-09T01:39:25;106.15;;;97.28;;
57531;SDS011;43359;51.296;16.904;2022-09-09T01:41:52;108.00;;;100.00;;
57531;SDS011;43359;51.296;16.904;2022-09-09T01:44:18;102.35;;;95.97;;
57531;SDS011;43359;51.296;16.904;2022-09-09T01:46:45;99.35;;;92.35;;
57531;SDS011;43359;51.296;16.904;2022-09-09T01:49:11;102.32;;;95.03;;
57531;SDS011;43359;51.296;16.904;2022-09-09T01:51:38;106.88;;;97.55;;
57531;SDS011;43359;51.296;16.904;2022-09-09T01:54:04;108.25;;;99.88;;
57531;SDS011;43359;51.296;16.904;2022-09-09T02:01:57;106.18;;;97.25;;
57531;SDS011;43359;51.296;16.904;2022-09-09T02:06:57;110.03;;;101.97;;
57531;SDS011;43359;51.296;16.904;2022-09-09T02:09:24;104.85;;;97.85;;
57531;SDS011;43359;51.296;16.904;2022-09-09T02:11:56;102.35;;;94.68;;
57531;SDS011;43359;51.296;16.904;2022-09-09T02:14:25;94.80;;;85.43;;
57531;SDS011;43359;51.296;16.904;2022-09-09T02:16:54;108.38;;;100.35;;
57531;SDS011;43359;51.296;16.904;2022-09-09T02:19:26;107.40;;;99.63;;
57531;SDS011;43359;51.296;16.904;2022-09-09T02:21:53;110.30;;;101.25;;
57531;SDS011;43359;51.296;16.904;2022-09-09T02:24:20;114.07;;;104.90;;
57531;SDS011;43359;51.296;16.904;2022-09-09T02:26:48;105.93;;;98.05;;
57531;SDS011;43359;51.296;16.904;2022-09-09T02:29:25;104.88;;;96.85;;
57531;SDS011;43359;51.296;16.904;2022-09-09T02:31:52;108.68;;;99.55;;
57531;SDS011;43359;51.296;16.904;2022-09-09T02:34:20;97.25;;;87.75;;
57531;SDS011;43359;51.296;16.904;2022-09-09T02:36:48;82.65;;;74.45;;
57531;SDS011;43359;51.296;16.904;2022-09-09T02:39:16;96.93;;;88.30;;
57531;SDS011;43359;51.296;16.904;2022-09-09T02:41:42;95.20;;;87.38;;
57531;SDS011;43359;51.296;16.904;2022-09-09T02:44:09;98.00;;;90.72;;
57531;SDS011;43359;51.296;16.904;2022-09-09T02:54:33;79.75;;;73.38;;
57531;SDS011;43359;51.296;16.904;2022-09-09T02:57:06;99.45;;;92.85;;
57531;SDS011;43359;51.296;16.904;2022-09-09T02:59:33;97.32;;;90.75;;
57531;SDS011;43359;51.296;16.904;2022-09-09T03:01:59;98.88;;;91.63;;
57531;SDS011;43359;51.296;16.904;2022-09-09T03:04:26;97.40;;;89.85;;
57531;SDS011;43359;51.296;16.904;2022-09-09T03:06:52;98.45;;;91.55;;
57531;SDS011;43359;51.296;16.904;2022-09-09T03:09:18;91.78;;;85.25;;
57531;SDS011;43359;51.296;16.904;2022-09-09T03:11:44;94.90;;;87.90;;
57531;SDS011;43359;51.296;16.904;2022-09-09T03:14:10;94.38;;;86.70;;
57531;SDS011;43359;51.296;16.904;2022-09-09T03:16:37;87.78;;;81.00;;
57531;SDS011;43359;51.296;16.904;2022-09-09T03:19:03;86.55;;;80.15;;
57531;SDS011;43359;51.296;16.904;2022-09-09T03:21:29;81.25;;;74.93;;
57531;SDS011;43359;51.296;16.904;2022-09-09T03:23:55;87.97;;;81.18;;
57531;SDS011;43359;51.296;16.904;2022-09-09T03:26:22;84.63;;;77.90;;
57531;SDS011;43359;51.296;16.904;2022-09-09T03:28:48;79.55;;;72.85;;
57531;SDS011;43359;51.296;16.904;2022-09-09T03:31:15;79.88;;;72.90;;
57531;SDS011;43359;51.296;16.904;2022-09-09T03:33:41;63.50;;;57.42;;
57531;SDS011;43359;51.296;16.904;2022-09-09T03:36:07;66.45;;;60.45;;
57531;SDS011;43359;51.296;16.904;2022-09-09T03:38:33;81.72;;;74.97;;
57531;SDS011;43359;51.296;16.904;2022-09-09T03:41:00;49.83;;;30.38;;
57531;SDS011;43359;51.296;16.904;2022-09-09T03:43:27;52.38;;;30.70;;
57531;SDS011;43359;51.296;16.904;2022-09-09T03:45:53;43.33;;;28.95;;
57531;SDS011;43359;51.296;16.904;2022-09-09T03:48:22;39.83;;;27.92;;
57531;SDS011;43359;51.296;16.904;2022-09-09T03:50:49;48.35;;;28.10;;
57531;SDS011;43359;51.296;16.904;2022-09-09T03:53:15;48.08;;;28.73;;
57531;SDS011;43359;51.296;16.904;2022-09-09T03:55:45;47.40;;;29.45;;
57531;SDS011;43359;51.296;16.904;2022-09-09T03:58:12;55.78;;;27.88;;
57531;SDS011;43359;51.296;16.904;2022-09-09T04:00:39;44.67;;;28.70;;
57531;SDS011;43359;51.296;16.904;2022-09-09T04:03:11;42.10;;;27.55;;
57531;SDS011;43359;51.296;16.904;2022-09-09T04:05:40;49.85;;;28.48;;
57531;SDS011;43359;51.296;16.904;2022-09-09T04:08:07;40.40;;;27.70;;
57531;SDS011;43359;51.296;16.904;2022-09-09T04:10:33;49.45;;;29.63;;
57531;SDS011;43359;51.296;16.904;2022-09-09T04:13:04;49.45;;;29.63;;
57531;SDS011;43359;51.296;16.904;2022-09-09T04:15:30;50.00;;;30.23;;
57531;SDS011;43359;51.296;16.904;2022-09-09T04:17:57;55.53;;;31.83;;
57531;SDS011;43359;51.296;16.904;2022-09-09T04:20:23;54.28;;;31.60;;
57531;SDS011;43359;51.296;16.904;2022-09-09T04:22:49;64.05;;;31.77;;
57531;SDS011;43359;51.296;16.904;2022-09-09T04:25:15;45.38;;;29.85;;
57531;SDS011;43359;51.296;16.904;2022-09-09T04:27:42;48.92;;;29.67;;
57531;SDS011;43359;51.296;16.904;2022-09-09T04:30:08;52.00;;;30.60;;
57531;SDS011;43359;51.296;16.904;2022-09-09T04:32:35;52.78;;;31.13;;
57531;SDS011;43359;51.296;16.904;2022-09-09T04:35:02;52.58;;;31.42;;
57531;SDS011;43359;51.296;16.904;2022-09-09T04:37:28;49.70;;;32.78;;
57531;SDS011;43359;51.296;16.904;2022-09-09T04:39:55;46.42;;;31.38;;
57531;SDS011;43359;51.296;16.904;2022-09-09T04:42:21;38.88;;;28.77;;
57531;SDS011;43359;51.296;16.904;2022-09-09T04:44:47;37.33;;;28.88;;
57531;SDS011;43359;51.296;16.904;2022-09-09T04:47:13;32.83;;;27.70;;
57531;SDS011;43359;51.296;16.904;2022-09-09T04:49:40;30.05;;;26.95;;
57531;SDS011;43359;51.296;16.904;2022-09-09T04:52:06;28.75;;;25.88;;
57531;SDS011;43359;51.296;16.904;2022-09-09T04:54:32;30.15;;;26.45;;
57531;SDS011;43359;51.296;16.904;2022-09-09T04:56:58;28.77;;;26.00;;
57531;SDS011;43359;51.296;16.904;2022-09-09T04:59:24;31.77;;;28.40;;
57531;SDS011;43359;51.296;16.904;2022-09-09T05:01:50;31.60;;;28.42;;
57531;SDS011;43359;51.296;16.904;2022-09-09T05:04:16;32.22;;;28.73;;
57531;SDS011;43359;51.296;16.904;2022-09-09T05:06:44;32.45;;;29.13;;
57531;SDS011;43359;51.296;16.904;2022-09-09T05:09:10;32.17;;;28.48;;
57531;SDS011;43359;51.296;16.904;2022-09-09T05:11:37;29.35;;;26.45;;
57531;SDS011;43359;51.296;16.904;2022-09-09T05:14:03;30.10;;;27.17;;
57531;SDS011;43359;51.296;16.904;2022-09-09T05:16:29;28.30;;;25.60;;
57531;SDS011;43359;51.296;16.904;2022-09-09T05:18:56;29.38;;;26.77;;
57531;SDS011;43359;51.296;16.904;2022-09-09T05:21:23;27.33;;;24.83;;
57531;SDS011;43359;51.296;16.904;2022-09-09T05:23:51;26.92;;;24.63;;
57531;SDS011;43359;51.296;16.904;2022-09-09T05:26:19;28.10;;;25.48;;
57531;SDS011;43359;51.296;16.904;2022-09-09T05:28:45;27.48;;;25.05;;
57531;SDS011;43359;51.296;16.904;2022-09-09T05:31:12;25.13;;;22.90;;
57531;SDS011;43359;51.296;16.904;2022-09-09T05:33:39;25.42;;;23.20;;
57531;SDS011;43359;51.296;16.904;2022-09-09T05:36:12;24.25;;;22.35;;
57531;SDS011;43359;51.296;16.904;2022-09-09T05:38:39;25.00;;;22.88;;
57531;SDS011;43359;51.296;16.904;2022-09-09T05:41:05;24.67;;;22.40;;
57531;SDS011;43359;51.296;16.904;2022-09-09T05:43:32;24.00;;;22.10;;
57531;SDS011;43359;51.296;16.904;2022-09-09T05:46:07;23.70;;;21.73;;
57531;SDS011;43359;51.296;16.904;2022-09-09T05:48:34;21.80;;;20.08;;
57531;SDS011;43359;51.296;16.904;2022-09-09T05:51:01;21.25;;;19.75;;
57531;SDS011;43359;51.296;16.904;2022-09-09T05:53:31;21.33;;;19.42;;
57531;SDS011;43359;51.296;16.904;2022-09-09T05:56:03;20.30;;;18.50;;
57531;SDS011;43359;51.296;16.904;2022-09-09T05:58:30;19.70;;;18.05;;
57531;SDS011;43359;51.296;16.904;2022-09-09T06:01:00;19.92;;;18.40;;
57531;SDS011;43359;51.296;16.904;2022-09-09T06:03:26;20.85;;;19.25;;
57531;SDS011;43359;51.296;16.904;2022-09-09T06:05:59;22.63;;;20.60;;
57531;SDS011;43359;51.296;16.904;2022-09-09T06:08:25;19.98;;;18.48;;
57531;SDS011;43359;51.296;16.904;2022-09-09T06:10:51;18.83;;;17.30;;
57531;SDS011;43359;51.296;16.904;2022-09-09T06:13:17;20.52;;;18.90;;
57531;SDS011;43359;51.296;16.904;2022-09-09T06:15:50;18.90;;;17.50;;
57531;SDS011;43359;51.296;16.904;2022-09-09T06:18:17;20.42;;;18.80;;
57531;SDS011;43359;51.296;16.904;2022-09-09T06:20:52;21.10;;;19.50;;
57531;SDS011;43359;51.296;16.904;2022-09-09T06:23:19;18.50;;;16.98;;
57531;SDS011;43359;51.296;16.904;2022-09-09T06:25:45;17.73;;;16.30;;
57531;SDS011;43359;51.296;16.904;2022-09-09T06:28:11;19.25;;;17.55;;
57531;SDS011;43359;51.296;16.904;2022-09-09T06:30:38;16.98;;;15.65;;
57531;SDS011;43359;51.296;16.904;2022-09-09T06:33:05;18.88;;;17.48;;
57531;SDS011;43359;51.296;16.904;2022-09-09T06:35:31;16.48;;;15.25;;
57531;SDS011;43359;51.296;16.904;2022-09-09T06:37:57;18.33;;;16.70;;
57531;SDS011;43359;51.296;16.904;2022-09-09T06:40:24;17.08;;;15.68;;
57531;SDS011;43359;51.296;16.904;2022-09-09T06:42:50;17.50;;;16.30;;
57531;SDS011;43359;51.296;16.904;2022-09-09T06:45:16;19.02;;;17.70;;
57531;SDS011;43359;51.296;16.904;2022-09-09T06:47:42;15.60;;;14.30;;
57531;SDS011;43359;51.296;16.904;2022-09-09T06:50:09;14.02;;;12.85;;
57531;SDS011;43359;51.296;16.904;2022-09-09T06:52:36;12.80;;;11.70;;
57531;SDS011;43359;51.296;16.904;2022-09-09T06:55:02;13.65;;;12.65;;
57531;SDS011;43359;51.296;16.904;2022-09-09T06:57:29;16.30;;;15.10;;
57531;SDS011;43359;51.296;16.904;2022-09-09T06:59:55;17.67;;;16.42;;
57531;SDS011;43359;51.296;16.904;2022-09-09T07:02:21;17.50;;;15.88;;
57531;SDS011;43359;51.296;16.904;2022-09-09T07:04:47;19.60;;;18.17;;
57531;SDS011;43359;51.296;16.904;2022-09-09T07:09:48;16.90;;;15.48;;
57531;SDS011;43359;51.296;16.904;2022-09-09T07:12:14;18.15;;;16.85;;
57531;SDS011;43359;51.296;16.904;2022-09-09T07:14:40;16.08;;;14.77;;
57531;SDS011;43359;51.296;16.904;2022-09-09T07:17:06;16.20;;;14.90;;
57531;SDS011;43359;51.296;16.904;2022-09-09T07:19:32;18.60;;;17.20;;
57531;SDS011;43359;51.296;16.904;2022-09-09T07:21:59;19.40;;;17.88;;
57531;SDS011;43359;51.296;16.904;2022-09-09T07:24:26;19.17;;;17.67;;
57531;SDS011;43359;51.296;16.904;2022-09-09T07:26:55;21.10;;;19.23;;
57531;SDS011;43359;51.296;16.904;2022-09-09T07:29:22;20.67;;;19.02;;
57531;SDS011;43359;51.296;16.904;2022-09-09T07:31:48;18.90;;;17.55;;
57531;SDS011;43359;51.296;16.904;2022-09-09T07:34:17;19.92;;;18.52;;
57531;SDS011;43359;51.296;16.904;2022-09-09T07:36:44;19.02;;;17.60;;
57531;SDS011;43359;51.296;16.904;2022-09-09T07:39:12;17.88;;;16.77;;
57531;SDS011;43359;51.296;16.904;2022-09-09T07:41:42;17.50;;;16.10;;
57531;SDS011;43359;51.296;16.904;2022-09-09T07:44:09;18.15;;;16.95;;
57531;SDS011;43359;51.296;16.904;2022-09-09T07:46:36;17.38;;;16.17;;
57531;SDS011;43359;51.296;16.904;2022-09-09T07:49:04;21.40;;;20.15;;
57531;SDS011;43359;51.296;16.904;2022-09-09T07:51:32;17.30;;;16.30;;
57531;SDS011;43359;51.296;16.904;2022-09-09T07:53:59;17.48;;;16.23;;
57531;SDS011;43359;51.296;16.904;2022-09-09T07:56:27;16.33;;;15.10;;
57531;SDS011;43359;51.296;16.904;2022-09-09T07:58:54;16.35;;;15.15;;
57531;SDS011;43359;51.296;16.904;2022-09-09T08:01:25;17.35;;;16.17;;
57531;SDS011;43359;51.296;16.904;2022-09-09T08:03:52;17.77;;;16.63;;
57531;SDS011;43359;51.296;16.904;2022-09-09T08:06:19;18.55;;;17.35;;
57531;SDS011;43359;51.296;16.904;2022-09-09T08:08:45;18.40;;;17.02;;
57531;SDS011;43359;51.296;16.904;2022-09-09T08:11:15;18.05;;;16.83;;
57531;SDS011;43359;51.296;16.904;2022-09-09T08:13:41;18.42;;;17.15;;
57531;SDS011;43359;51.296;16.904;2022-09-09T08:16:12;17.75;;;16.40;;
57531;SDS011;43359;51.296;16.904;2022-09-09T08:18:39;18.90;;;17.73;;
57531;SDS011;43359;51.296;16.904;2022-09-09T08:21:09;20.10;;;18.80;;
57531;SDS011;43359;51.296;16.904;2022-09-09T08:23:41;21.23;;;19.80;;
57531;SDS011;43359;51.296;16.904;2022-09-09T08:26:12;18.90;;;17.60;;
57531;SDS011;43359;51.296;16.904;2022-09-09T08:28:38;16.92;;;15.80;;
57531;SDS011;43359;51.296;16.904;2022-09-09T08:31:06;18.45;;;17.10;;
57531;SDS011;43359;51.296;16.904;2022-09-09T08:33:32;17.98;;;16.75;;
57531;SDS011;43359;51.296;16.904;2022-09-09T08:35:58;17.58;;;16.42;;
57531;SDS011;43359;51.296;16.904;2022-09-09T08:38:24;17.75;;;16.55;;
57531;SDS011;43359;51.296;16.904;2022-09-09T08:40:51;17.30;;;16.20;;
57531;SDS011;43359;51.296;16.904;2022-09-09T08:43:19;16.77;;;15.40;;
57531;SDS011;43359;51.296;16.904;2022-09-09T08:50:54;17.58;;;15.98;;
57531;SDS011;43359;51.296;16.904;2022-09-09T08:53:27;16.77;;;15.77;;
57531;SDS011;43359;51.296;16.904;2022-09-09T08:55:57;17.27;;;16.13;;
57531;SDS011;43359;51.296;16.904;2022-09-09T08:58:28;16.30;;;15.25;;
57531;SDS011;43359;51.296;16.904;2022-09-09T09:09:01;16.65;;;15.40;;
57531;SDS011;43359;51.296;16.904;2022-09-09T09:11:37;16.85;;;15.75;;
57531;SDS011;43359;51.296;16.904;2022-09-09T09:14:25;17.50;;;16.25;;
57531;SDS011;43359;51.296;16.904;2022-09-09T09:16:58;16.13;;;15.07;;
57531;SDS011;43359;51.296;16.904;2022-09-09T09:19:24;17.05;;;15.73;;
57531;SDS011;43359;51.296;16.904;2022-09-09T09:24:26;15.82;;;14.63;;
57531;SDS011;43359;51.296;16.904;2022-09-09T09:26:53;15.65;;;14.48;;
57531;SDS011;43359;51.296;16.904;2022-09-09T09:29:19;16.30;;;14.88;;
57531;SDS011;43359;51.296;16.904;2022-09-09T09:31:53;15.75;;;14.68;;
57531;SDS011;43359;51.296;16.904;2022-09-09T09:34:21;16.17;;;15.15;;
57531;SDS011;43359;51.296;16.904;2022-09-09T09:36:55;16.30;;;15.27;;
57531;SDS011;43359;51.296;16.904;2022-09-09T09:39:28;16.98;;;15.98;;
57531;SDS011;43359;51.296;16.904;2022-09-09T09:41:55;16.10;;;15.10;;
57531;SDS011;43359;51.296;16.904;2022-09-09T09:44:26;16.63;;;15.63;;
57531;SDS011;43359;51.296;16.904;2022-09-09T09:46:52;15.88;;;14.88;;
57531;SDS011;43359;51.296;16.904;2022-09-09T09:49:19;16.60;;;15.50;;
57531;SDS011;43359;51.296;16.904;2022-09-09T09:51:45;16.98;;;15.75;;
57531;SDS011;43359;51.296;16.904;2022-09-09T09:54:31;16.48;;;15.25;;
57531;SDS011;43359;51.296;16.904;2022-09-09T09:57:11;15.60;;;14.60;;
57531;SDS011;43359;51.296;16.904;2022-09-09T09:59:37;15.63;;;14.63;;
57531;SDS011;43359;51.296;16.904;2022-09-09T10:02:18;15.73;;;14.73;;
57531;SDS011;43359;51.296;16.904;2022-09-09T10:04:44;18.05;;;16.92;;
57531;SDS011;43359;51.296;16.904;2022-09-09T10:07:20;16.88;;;15.77;;
57531;SDS011;43359;51.296;16.904;2022-09-09T10:09:55;15.98;;;15.00;;
57531;SDS011;43359;51.296;16.904;2022-09-09T10:20:37;15.90;;;14.90;;
57531;SDS011;43359;51.296;16.904;2022-09-09T10:25:52;16.15;;;15.00;;
57531;SDS011;43359;51.296;16.904;2022-09-09T10:36:16;16.00;;;15.00;;
57531;SDS011;43359;51.296;16.904;2022-09-09T10:38:46;16.80;;;15.60;;
57531;SDS011;43359;51.296;16.904;2022-09-09T10:41:21;16.75;;;15.65;;
57531;SDS011;43359;51.296;16.904;2022-09-09T10:49:24;16.50;;;15.40;;
57531;SDS011;43359;51.296;16.904;2022-09-09T10:52:07;16.73;;;15.73;;
57531;SDS011;43359;51.296;16.904;2022-09-09T11:00:04;16.90;;;15.80;;
57531;SDS011;43359;51.296;16.904;2022-09-09T11:02:32;17.17;;;16.08;;
57531;SDS011;43359;51.296;16.904;2022-09-09T11:05:03;18.15;;;17.00;;
57531;SDS011;43359;51.296;16.904;2022-09-09T11:09:59;16.83;;;15.75;;
57531;SDS011;43359;51.296;16.904;2022-09-09T11:12:25;15.02;;;14.23;;
57531;SDS011;43359;51.296;16.904;2022-09-09T11:17:56;15.07;;;14.00;;
57531;SDS011;43359;51.296;16.904;2022-09-09T11:20:25;14.57;;;13.60;;
57531;SDS011;43359;51.296;16.904;2022-09-09T11:22:55;14.13;;;12.68;;
57531;SDS011;43359;51.296;16.904;2022-09-09T11:38:42;14.70;;;13.80;;
57531;SDS011;43359;51.296;16.904;2022-09-09T11:41:11;14.55;;;13.68;;
57531;SDS011;43359;51.296;16.904;2022-09-09T11:46:07;16.45;;;15.27;;
57531;SDS011;43359;51.296;16.904;2022-09-09T11:51:06;16.80;;;15.70;;
57531;SDS011;43359;51.296;16.904;2022-09-09T11:53:33;14.20;;;13.40;;
57531;SDS011;43359;51.296;16.904;2022-09-09T11:56:07;16.33;;;15.30;;
57531;SDS011;43359;51.296;16.904;2022-09-09T11:58:36;16.60;;;15.57;;
57531;SDS011;43359;51.296;16.904;2022-09-09T12:09:21;15.50;;;14.45;;
57531;SDS011;43359;51.296;16.904;2022-09-09T12:11:48;15.82;;;14.90;;
57531;SDS011;43359;51.296;16.904;2022-09-09T12:14:57;15.85;;;14.55;;
57531;SDS011;43359;51.296;16.904;2022-09-09T12:19:42;16.00;;;14.90;;
57531;SDS011;43359;51.296;16.904;2022-09-09T12:22:26;16.50;;;15.43;;
57531;SDS011;43359;51.296;16.904;2022-09-09T12:24:59;16.33;;;15.23;;
57531;SDS011;43359;51.296;16.904;2022-09-09T12:27:34;15.85;;;14.85;;
57531;SDS011;43359;51.296;16.904;2022-09-09T12:30:03;15.95;;;14.95;;
57531;SDS011;43359;51.296;16.904;2022-09-09T12:32:31;16.75;;;15.70;;
57531;SDS011;43359;51.296;16.904;2022-09-09T12:37:42;15.43;;;14.43;;
57531;SDS011;43359;51.296;16.904;2022-09-09T12:40:21;18.20;;;17.00;;
57531;SDS011;43359;51.296;16.904;2022-09-09T12:42:48;17.45;;;16.42;;
57531;SDS011;43359;51.296;16.904;2022-09-09T12:45:17;16.77;;;15.88;;
57531;SDS011;43359;51.296;16.904;2022-09-09T12:47:50;15.88;;;14.98;;
57531;SDS011;43359;51.296;16.904;2022-09-09T12:50:19;16.17;;;15.07;;
57531;SDS011;43359;51.296;16.904;2022-09-09T12:52:47;16.05;;;15.05;;
57531;SDS011;43359;51.296;16.904;2022-09-09T12:55:32;15.63;;;14.52;;
57531;SDS011;43359;51.296;16.904;2022-09-09T12:58:01;15.20;;;14.20;;
57531;SDS011;43359;51.296;16.904;2022-09-09T13:00:31;14.48;;;13.57;;
57531;SDS011;43359;51.296;16.904;2022-09-09T13:02:58;15.48;;;14.48;;
57531;SDS011;43359;51.296;16.904;2022-09-09T13:05:25;16.10;;;15.02;;
57531;SDS011;43359;51.296;16.904;2022-09-09T13:08:00;15.73;;;14.82;;
57531;SDS011;43359;51.296;16.904;2022-09-09T13:10:27;15.07;;;14.23;;
57531;SDS011;43359;51.296;16.904;2022-09-09T13:12:54;15.88;;;14.90;;
57531;SDS011;43359;51.296;16.904;2022-09-09T13:15:24;16.10;;;15.10;;
57531;SDS011;43359;51.296;16.904;2022-09-09T13:17:55;17.88;;;16.77;;
57531;SDS011;43359;51.296;16.904;2022-09-09T13:20:22;15.98;;;15.02;;
57531;SDS011;43359;51.296;16.904;2022-09-09T13:22:49;17.10;;;15.88;;
57531;SDS011;43359;51.296;16.904;2022-09-09T13:25:18;16.73;;;15.38;;
57531;SDS011;43359;51.296;16.904;2022-09-09T13:27:52;16.65;;;15.55;;
57531;SDS011;43359;51.296;16.904;2022-09-09T13:30:22;15.77;;;14.77;;
57531;SDS011;43359;51.296;16.904;2022-09-09T13:33:01;16.45;;;15.20;;
57531;SDS011;43359;51.296;16.904;2022-09-09T13:35:27;15.32;;;14.43;;
57531;SDS011;43359;51.296;16.904;2022-09-09T13:37:54;15.68;;;14.77;;
57531;SDS011;43359;51.296;16.904;2022-09-09T13:40:21;16.10;;;15.02;;
57531;SDS011;43359;51.296;16.904;2022-09-09T13:42:50;16.88;;;15.50;;
57531;SDS011;43359;51.296;16.904;2022-09-09T13:45:26;17.10;;;16.00;;
57531;SDS011;43359;51.296;16.904;2022-09-09T13:47:52;16.60;;;15.70;;
57531;SDS011;43359;51.296;16.904;2022-09-09T13:52:49;16.48;;;15.55;;
57531;SDS011;43359;51.296;16.904;2022-09-09T13:55:16;15.95;;;14.95;;
57531;SDS011;43359;51.296;16.904;2022-09-09T13:58:02;16.30;;;15.20;;
57531;SDS011;43359;51.296;16.904;2022-09-09T14:00:30;16.77;;;15.77;;
57531;SDS011;43359;51.296;16.904;2022-09-09T14:02:57;16.17;;;14.98;;
57531;SDS011;43359;51.296;16.904;2022-09-09T14:05:23;15.20;;;14.30;;
57531;SDS011;43359;51.296;16.904;2022-09-09T14:07:50;16.08;;;15.07;;
57531;SDS011;43359;51.296;16.904;2022-09-09T14:10:16;15.77;;;14.70;;
57531;SDS011;43359;51.296;16.904;2022-09-09T14:12:42;14.10;;;13.30;;
57531;SDS011;43359;51.296;16.904;2022-09-09T14:15:09;15.02;;;13.93;;
57531;SDS011;43359;51.296;16.904;2022-09-09T14:17:35;16.20;;;15.30;;
57531;SDS011;43359;51.296;16.904;2022-09-09T14:20:03;17.00;;;15.95;;
57531;SDS011;43359;51.296;16.904;2022-09-09T14:22:30;19.17;;;18.05;;
57531;SDS011;43359;51.296;16.904;2022-09-09T14:24:57;17.15;;;16.15;;
57531;SDS011;43359;51.296;16.904;2022-09-09T14:27:23;18.05;;;16.95;;
57531;SDS011;43359;51.296;16.904;2022-09-09T14:29:51;16.27;;;15.18;;
57531;SDS011;43359;51.296;16.904;2022-09-09T14:32:17;16.95;;;15.85;;
57531;SDS011;43359;51.296;16.904;2022-09-09T14:34:43;16.25;;;15.25;;
57531;SDS011;43359;51.296;16.904;2022-09-09T14:37:09;17.25;;;16.10;;
57531;SDS011;43359;51.296;16.904;2022-09-09T14:39:35;16.60;;;15.40;;
57531;SDS011;43359;51.296;16.904;2022-09-09T14:42:01;17.50;;;16.40;;
57531;SDS011;43359;51.296;16.904;2022-09-09T14:44:27;17.73;;;16.63;;
57531;SDS011;43359;51.296;16.904;2022-09-09T14:46:54;18.52;;;17.33;;
57531;SDS011;43359;51.296;16.904;2022-09-09T14:49:20;16.73;;;15.52;;
57531;SDS011;43359;51.296;16.904;2022-09-09T14:51:46;16.83;;;15.70;;
57531;SDS011;43359;51.296;16.904;2022-09-09T14:54:12;16.88;;;15.68;;
57531;SDS011;43359;51.296;16.904;2022-09-09T14:56:39;17.80;;;16.70;;
57531;SDS011;43359;51.296;16.904;2022-09-09T14:59:05;17.75;;;16.60;;
57531;SDS011;43359;51.296;16.904;2022-09-09T15:01:31;16.88;;;15.88;;
57531;SDS011;43359;51.296;16.904;2022-09-09T15:03:59;16.83;;;15.63;;
57531;SDS011;43359;51.296;16.904;2022-09-09T15:06:26;16.50;;;15.50;;
57531;SDS011;43359;51.296;16.904;2022-09-09T15:08:54;38.78;;;36.78;;
57531;SDS011;43359;51.296;16.904;2022-09-09T15:11:23;23.13;;;21.80;;
57531;SDS011;43359;51.296;16.904;2022-09-09T15:13:50;21.67;;;20.38;;
57531;SDS011;43359;51.296;16.904;2022-09-09T15:16:20;19.75;;;18.50;;
57531;SDS011;43359;51.296;16.904;2022-09-09T15:18:50;19.33;;;17.92;;
57531;SDS011;43359;51.296;16.904;2022-09-09T15:21:17;24.67;;;23.23;;
57531;SDS011;43359;51.296;16.904;2022-09-09T15:23:46;26.80;;;25.40;;
57531;SDS011;43359;51.296;16.904;2022-09-09T15:26:13;28.85;;;27.20;;
57531;SDS011;43359;51.296;16.904;2022-09-09T15:28:39;23.52;;;22.17;;
57531;SDS011;43359;51.296;16.904;2022-09-09T15:31:07;24.17;;;22.70;;
57531;SDS011;43359;51.296;16.904;2022-09-09T15:33:34;23.17;;;21.60;;
57531;SDS011;43359;51.296;16.904;2022-09-09T15:38:59;24.63;;;23.40;;
57531;SDS011;43359;51.296;16.904;2022-09-09T15:41:25;24.17;;;22.88;;
57531;SDS011;43359;51.296;16.904;2022-09-09T15:43:52;23.88;;;22.42;;
57531;SDS011;43359;51.296;16.904;2022-09-09T15:49:04;24.80;;;23.35;;
57531;SDS011;43359;51.296;16.904;2022-09-09T15:51:30;26.92;;;25.20;;
57531;SDS011;43359;51.296;16.904;2022-09-09T15:53:57;27.27;;;25.70;;
57531;SDS011;43359;51.296;16.904;2022-09-09T15:56:24;24.55;;;23.00;;
57531;SDS011;43359;51.296;16.904;2022-09-09T15:58:52;24.70;;;23.40;;
57531;SDS011;43359;51.296;16.904;2022-09-09T16:01:18;24.77;;;23.38;;
57531;SDS011;43359;51.296;16.904;2022-09-09T16:03:45;24.88;;;23.33;;
57531;SDS011;43359;51.296;16.904;2022-09-09T16:06:13;28.33;;;26.63;;
57531;SDS011;43359;51.296;16.904;2022-09-09T16:08:40;27.52;;;26.00;;
57531;SDS011;43359;51.296;16.904;2022-09-09T16:11:14;28.98;;;27.35;;
57531;SDS011;43359;51.296;16.904;2022-09-09T16:13:42;29.17;;;27.67;;
57531;SDS011;43359;51.296;16.904;2022-09-09T16:16:09;27.40;;;25.90;;
57531;SDS011;43359;51.296;16.904;2022-09-09T16:18:37;22.98;;;21.67;;
57531;SDS011;43359;51.296;16.904;2022-09-09T16:21:03;16.85;;;15.75;;
57531;SDS011;43359;51.296;16.904;2022-09-09T16:23:33;17.30;;;16.05;;
57531;SDS011;43359;51.296;16.904;2022-09-09T16:26:00;22.50;;;20.67;;
57531;SDS011;43359;51.296;16.904;2022-09-09T16:28:27;21.85;;;20.50;;
57531;SDS011;43359;51.296;16.904;2022-09-09T16:30:53;20.65;;;19.30;;
57531;SDS011;43359;51.296;16.904;2022-09-09T16:33:19;48.97;;;46.58;;